Time;durP1;ratioP1;P1;durP2;ratioP2;P2;SDS_P1;SDS_P2;PMS_P1;PMS_P2;Temp;Humidity;BMP_temperature;BMP_pressure;BME280_temperature;BME280_humidity;BME280_pressure;Samples;Min_cycle;Max_cycle;Signal;HPM_P1;HPM_P2
2021/12/11 00:00:59;;;;;;;;;6.00;6.00;;;;;;;;5076116;27;45381;-43
2021/12/11 00:03:27;;;;;;;;;3.00;3.00;;;;;;;;5070968;28;45449;-44
2021/12/11 00:05:55;;;;;;;;;6.25;5.00;;;;;;;;5081965;28;45331;-43
2021/12/11 00:08:22;;;;;;;;;3.00;3.00;;;;;;;;5081952;28;45544;-43
2021/12/11 00:10:50;;;;;;;;;5.75;5.00;;;;;;;;5080770;27;45409;-42
2021/12/11 00:13:17;;;;;;;;;3.00;3.00;;;;;;;;5079638;27;45489;-43
2021/12/11 00:15:44;;;;;;;;;5.75;3.50;;;;;;;;5081648;27;45390;-43
2021/12/11 00:18:12;;;;;;;;;5.25;2.00;;;;;;;;5082224;27;45208;-43
2021/12/11 00:20:39;;;;;;;;;6.00;6.00;;;;;;;;5080703;28;45418;-43
2021/12/11 00:23:05;;;;;;;;;5.00;3.00;;;;;;;;5080430;27;45534;-42
2021/12/11 00:25:30;;;;;;;;;4.50;3.00;;;;;;;;5081873;27;45347;-44
2021/12/11 00:28:03;;;;;;;;;4.00;4.00;;;;;;;;5077169;28;45353;-42
2021/12/11 00:30:33;;;;;;;;;6.75;4.00;;;;;;;;5078103;27;46173;-42
2021/12/11 00:32:59;;;;;;;;;5.00;5.00;;;;;;;;5077718;27;45270;-42
2021/12/11 00:35:25;;;;;;;;;5.25;4.50;;;;;;;;5076909;27;45735;-44
2021/12/11 00:37:50;;;;;;;;;1.50;0.75;;;;;;;;5077514;28;45708;-43
2021/12/11 00:40:20;;;;;;;;;3.00;3.00;;;;;;;;5078190;28;46184;-44
2021/12/11 00:42:49;;;;;;;;;5.00;3.00;;;;;;;;5077916;27;45349;-42
2021/12/11 00:45:17;;;;;;;;;7.50;3.50;;;;;;;;5077135;27;45278;-44
2021/12/11 00:47:47;;;;;;;;;2.25;1.75;;;;;;;;5077700;27;45310;-43
2021/12/11 00:50:13;;;;;;;;;4.50;4.50;;;;;;;;5076844;28;46736;-44
2021/12/11 00:52:43;;;;;;;;;5.00;5.00;;;;;;;;5078043;27;45357;-45
2021/12/11 00:55:17;;;;;;;;;3.00;3.00;;;;;;;;5077813;27;45448;-41
2021/12/11 00:57:42;;;;;;;;;2.00;2.00;;;;;;;;5075893;27;45398;-42
2021/12/11 01:00:10;;;;;;;;;6.50;3.00;;;;;;;;5077564;28;46705;-42
2021/12/11 01:02:35;;;;;;;;;2.75;2.75;;;;;;;;5077906;28;45387;-42
2021/12/11 01:05:01;;;;;;;;;2.25;2.25;;;;;;;;5076425;27;45359;-42
2021/12/11 01:07:32;;;;;;;;;3.00;3.00;;;;;;;;5077259;27;45534;-42
2021/12/11 01:10:06;;;;;;;;;2.00;2.00;;;;;;;;5075871;27;45647;-42
2021/12/11 01:12:44;;;;;;;;;1.00;1.00;;;;;;;;5076139;27;45531;-42
2021/12/11 01:15:13;;;;;;;;;2.00;2.00;;;;;;;;5075062;28;45381;-42
2021/12/11 01:17:59;;;;;;;;;2.50;1.75;;;;;;;;5075275;27;45657;-43
2021/12/11 01:20:34;;;;;;;;;5.00;2.25;;;;;;;;5075452;27;45302;-42
2021/12/11 01:23:00;;;;;;;;;3.00;2.00;;;;;;;;5075252;27;45549;-42
2021/12/11 01:25:27;;;;;;;;;5.75;5.75;;;;;;;;5073028;28;45569;-43
2021/12/11 01:27:55;;;;;;;;;3.50;3.50;;;;;;;;5076224;27;45530;-43
2021/12/11 01:30:35;;;;;;;;;2.00;2.00;;;;;;;;5076370;28;46219;-43
2021/12/11 01:33:01;;;;;;;;;2.50;2.00;;;;;;;;5074064;27;45552;-43
2021/12/11 01:35:28;;;;;;;;;5.00;4.50;;;;;;;;5076153;27;45468;-42
2021/12/11 01:38:11;;;;;;;;;5.75;2.50;;;;;;;;5074698;27;45496;-42
2021/12/11 01:40:37;;;;;;;;;4.00;2.25;;;;;;;;5075947;27;45620;-43
2021/12/11 01:43:04;;;;;;;;;2.50;2.50;;;;;;;;5066838;28;45397;-43
2021/12/11 01:45:30;;;;;;;;;2.00;1.75;;;;;;;;5073985;27;45551;-43
2021/12/11 01:47:55;;;;;;;;;2.50;2.50;;;;;;;;5069618;28;45695;-43
2021/12/11 01:50:24;;;;;;;;;4.00;2.50;;;;;;;;5075857;28;46933;-43
2021/12/11 01:53:01;;;;;;;;;2.25;2.25;;;;;;;;5074139;28;45307;-50
2021/12/11 01:55:31;;;;;;;;;5.50;5.50;;;;;;;;5071181;27;45388;-43
2021/12/11 01:57:57;;;;;;;;;3.00;3.00;;;;;;;;5076086;27;45439;-43
2021/12/11 02:00:27;;;;;;;;;2.00;2.00;;;;;;;;5074120;27;46044;-43
2021/12/11 02:02:54;;;;;;;;;3.00;3.00;;;;;;;;5073212;27;45550;-43
2021/12/11 02:05:22;;;;;;;;;2.00;2.00;;;;;;;;5075018;28;45510;-43
2021/12/11 02:07:49;;;;;;;;;1.00;1.00;;;;;;;;5072288;27;45629;-43
2021/12/11 02:10:19;;;;;;;;;7.50;6.25;;;;;;;;5073719;27;45600;-43
2021/12/11 02:12:45;;;;;;;;;5.00;2.00;;;;;;;;5074904;27;45556;-43
2021/12/11 02:15:13;;;;;;;;;2.00;2.00;;;;;;;;5075027;27;45462;-43
2021/12/11 02:17:44;;;;;;;;;2.75;2.25;;;;;;;;5075537;27;45583;-43
2021/12/11 02:20:14;;;;;;;;;5.25;3.50;;;;;;;;5074294;27;46056;-43
2021/12/11 02:22:45;;;;;;;;;2.50;2.50;;;;;;;;5074882;27;45490;-44
2021/12/11 02:25:13;;;;;;;;;4.50;2.50;;;;;;;;5075833;27;45558;-43
2021/12/11 02:27:48;;;;;;;;;3.00;3.00;;;;;;;;5077116;28;45336;-45
2021/12/11 02:30:20;;;;;;;;;1.50;1.00;;;;;;;;5069204;28;45532;-44
2021/12/11 02:32:57;;;;;;;;;6.00;4.00;;;;;;;;5072399;27;45437;-43
2021/12/11 02:35:32;;;;;;;;;3.00;2.00;;;;;;;;5076116;27;45362;-44
2021/12/11 02:38:04;;;;;;;;;3.50;3.50;;;;;;;;5075838;27;45551;-44
2021/12/11 02:40:42;;;;;;;;;2.00;1.00;;;;;;;;5072033;27;46193;-43
2021/12/11 02:43:16;;;;;;;;;2.75;2.75;;;;;;;;5071839;27;45433;-44
2021/12/11 02:45:45;;;;;;;;;2.00;2.00;;;;;;;;5074234;27;45473;-43
2021/12/11 02:48:17;;;;;;;;;8.00;3.00;;;;;;;;5071398;27;45555;-43
2021/12/11 02:50:42;;;;;;;;;2.00;2.00;;;;;;;;5075245;28;45595;-43
2021/12/11 02:53:10;;;;;;;;;5.50;3.00;;;;;;;;5073235;28;45476;-43
2021/12/11 02:55:38;;;;;;;;;2.25;2.25;;;;;;;;5074319;28;45432;-40
2021/12/11 02:58:06;;;;;;;;;3.25;2.75;;;;;;;;5075237;27;45588;-43
2021/12/11 03:00:34;;;;;;;;;2.50;2.50;;;;;;;;5074898;28;45506;-43
2021/12/11 03:03:04;;;;;;;;;2.25;2.25;;;;;;;;5072621;27;45464;-43
2021/12/11 03:05:38;;;;;;;;;3.50;2.25;;;;;;;;5072197;27;45505;-45
2021/12/11 03:08:05;;;;;;;;;5.00;5.00;;;;;;;;5074667;27;45564;-42
2021/12/11 03:10:32;;;;;;;;;2.00;2.00;;;;;;;;5075422;27;46610;-43
2021/12/11 03:12:57;;;;;;;;;2.00;2.00;;;;;;;;5074251;27;45449;-42
2021/12/11 03:15:22;;;;;;;;;2.50;2.50;;;;;;;;5074717;27;45385;-43
2021/12/11 03:17:48;;;;;;;;;2.00;1.00;;;;;;;;5073649;27;45428;-42
2021/12/11 03:20:15;;;;;;;;;5.00;2.25;;;;;;;;5074607;28;46317;-43
2021/12/11 03:22:43;;;;;;;;;2.25;2.25;;;;;;;;5057133;27;45345;-42
2021/12/11 03:25:10;;;;;;;;;3.00;3.00;;;;;;;;5069372;28;45494;-42
2021/12/11 03:27:35;;;;;;;;;4.00;4.00;;;;;;;;5073113;28;45624;-42
2021/12/11 03:30:04;;;;;;;;;4.75;2.00;;;;;;;;5073212;27;45459;-43
2021/12/11 03:32:30;;;;;;;;;1.00;1.00;;;;;;;;5074437;27;45615;-41
2021/12/11 03:34:55;;;;;;;;;1.25;1.25;;;;;;;;5073486;27;45519;-41
2021/12/11 03:37:20;;;;;;;;;2.75;2.00;;;;;;;;5074876;28;45630;-42
2021/12/11 03:39:48;;;;;;;;;5.00;2.00;;;;;;;;5071632;27;45876;-42
2021/12/11 03:42:15;;;;;;;;;2.00;2.00;;;;;;;;5073667;28;45526;-42
2021/12/11 03:44:42;;;;;;;;;3.00;2.50;;;;;;;;5074688;28;45200;-43
2021/12/11 03:47:10;;;;;;;;;4.75;1.00;;;;;;;;5071089;28;45585;-43
2021/12/11 03:49:35;;;;;;;;;2.00;2.00;;;;;;;;5073630;27;45458;-42
2021/12/11 03:52:00;;;;;;;;;3.50;2.75;;;;;;;;5074163;28;45274;-42
2021/12/11 03:54:28;;;;;;;;;3.00;1.25;;;;;;;;5060476;28;45519;-43
2021/12/11 03:56:53;;;;;;;;;2.25;1.00;;;;;;;;5070923;28;45535;-42
2021/12/11 03:59:19;;;;;;;;;4.00;1.75;;;;;;;;5074411;27;45491;-42
2021/12/11 04:01:46;;;;;;;;;2.00;2.00;;;;;;;;5074657;27;45531;-42
2021/12/11 04:04:14;;;;;;;;;1.25;1.00;;;;;;;;5078415;27;45299;-42
2021/12/11 04:06:39;;;;;;;;;1.00;1.00;;;;;;;;5061333;28;45259;-42
2021/12/11 04:09:08;;;;;;;;;1.00;0.00;;;;;;;;5078525;27;46164;-43
2021/12/11 04:11:34;;;;;;;;;2.25;1.50;;;;;;;;5077772;28;45476;-43
2021/12/11 04:14:06;;;;;;;;;2.50;2.00;;;;;;;;5063439;28;45269;-43
2021/12/11 04:16:32;;;;;;;;;1.25;1.25;;;;;;;;5078312;27;45380;-43
2021/12/11 04:18:57;;;;;;;;;5.25;2.75;;;;;;;;5078885;27;46252;-43
2021/12/11 04:21:23;;;;;;;;;1.25;1.25;;;;;;;;5078487;27;45535;-43
2021/12/11 04:23:49;;;;;;;;;5.00;1.25;;;;;;;;5077886;27;45239;-44
2021/12/11 04:26:14;;;;;;;;;2.00;2.00;;;;;;;;5078752;28;45679;-42
2021/12/11 04:28:40;;;;;;;;;1.50;1.50;;;;;;;;5094570;27;47398;-43
2021/12/11 04:31:08;;;;;;;;;3.75;2.00;;;;;;;;5076352;27;45362;-43
2021/12/11 04:33:37;;;;;;;;;2.00;1.00;;;;;;;;5077923;27;45388;-43
2021/12/11 04:36:03;;;;;;;;;5.75;1.50;;;;;;;;5058354;28;45684;-43
2021/12/11 04:38:29;;;;;;;;;1.50;1.25;;;;;;;;5076895;28;46037;-42
2021/12/11 04:40:57;;;;;;;;;7.00;1.00;;;;;;;;5078384;27;45380;-44
2021/12/11 04:43:24;;;;;;;;;1.00;1.00;;;;;;;;5078797;28;45360;-43
2021/12/11 04:45:49;;;;;;;;;1.25;1.25;;;;;;;;5077740;28;45484;-43
2021/12/11 04:48:33;;;;;;;;;2.50;2.00;;;;;;;;5078379;27;45289;-43
2021/12/11 04:51:13;;;;;;;;;1.50;0.50;;;;;;;;5077913;28;45233;-44
2021/12/11 04:54:00;;;;;;;;;2.25;2.25;;;;;;;;5078553;27;45355;-42
2021/12/11 05:07:24;;;;;;;;;1.25;1.00;;;;;;;;5077796;27;45436;-43
2021/12/11 05:09:59;;;;;;;;;2.00;2.00;;;;;;;;5078145;27;45342;-41
2021/12/11 05:14:51;;;;;;;;;2.75;1.00;;;;;;;;5077632;27;45286;-41
2021/12/11 05:17:18;;;;;;;;;2.00;2.00;;;;;;;;5077413;28;45358;-41
2021/12/11 05:19:44;;;;;;;;;5.50;2.00;;;;;;;;5077638;27;46680;-41
2021/12/11 05:22:09;;;;;;;;;1.00;1.00;;;;;;;;5073107;28;45281;-41
2021/12/11 05:24:35;;;;;;;;;5.00;1.75;;;;;;;;5071441;27;45276;-42
2021/12/11 05:27:01;;;;;;;;;0.75;0.75;;;;;;;;5076134;27;45433;-42
2021/12/11 05:29:27;;;;;;;;;3.00;3.00;;;;;;;;5057131;28;46466;-41
2021/12/11 05:31:52;;;;;;;;;2.25;2.25;;;;;;;;5074417;27;45409;-42
2021/12/11 05:34:17;;;;;;;;;2.25;2.25;;;;;;;;5071107;27;45421;-42
2021/12/11 05:36:43;;;;;;;;;1.75;1.75;;;;;;;;5073333;28;45654;-41
2021/12/11 05:39:12;;;;;;;;;5.25;3.50;;;;;;;;5077538;27;46347;-42
2021/12/11 05:41:38;;;;;;;;;2.00;2.00;;;;;;;;5077183;27;45362;-42
2021/12/11 05:44:04;;;;;;;;;2.75;1.75;;;;;;;;5077698;27;45283;-42
2021/12/11 05:46:29;;;;;;;;;3.00;3.00;;;;;;;;5077082;27;45197;-42
2021/12/11 05:48:56;;;;;;;;;6.00;4.00;;;;;;;;5077141;27;46410;-42
2021/12/11 05:51:23;;;;;;;;;2.75;1.00;;;;;;;;5076838;27;45371;-41
2021/12/11 05:53:50;;;;;;;;;6.00;2.00;;;;;;;;5077493;27;45342;-42
2021/12/11 05:56:17;;;;;;;;;4.00;4.00;;;;;;;;5077497;28;45476;-41
2021/12/11 05:58:56;;;;;;;;;2.00;2.00;;;;;;;;5076752;28;47124;-42
2021/12/11 06:01:22;;;;;;;;;3.00;2.00;;;;;;;;5075715;27;45280;-41
2021/12/11 06:03:47;;;;;;;;;5.00;3.00;;;;;;;;5077136;27;45452;-42
2021/12/11 06:06:12;;;;;;;;;3.50;3.50;;;;;;;;5077184;27;45574;-41
2021/12/11 06:08:38;;;;;;;;;3.00;3.00;;;;;;;;5076351;27;45503;-42
2021/12/11 06:11:03;;;;;;;;;2.75;1.75;;;;;;;;5071222;27;45572;-42
2021/12/11 06:13:29;;;;;;;;;2.00;2.00;;;;;;;;5060608;28;45469;-42
2021/12/11 06:15:55;;;;;;;;;6.00;5.00;;;;;;;;5064233;28;45455;-42
2021/12/11 06:18:21;;;;;;;;;5.75;2.75;;;;;;;;5076950;27;46724;-41
2021/12/11 06:20:47;;;;;;;;;6.25;5.00;;;;;;;;5076896;27;45421;-42
2021/12/11 06:23:13;;;;;;;;;5.75;2.75;;;;;;;;5076615;27;45583;-42
2021/12/11 06:25:39;;;;;;;;;3.00;3.00;;;;;;;;5075591;27;45251;-42
2021/12/11 06:28:05;;;;;;;;;1.00;1.00;;;;;;;;5077095;28;46186;-42
2021/12/11 06:30:30;;;;;;;;;5.00;3.00;;;;;;;;5076163;27;45286;-41
2021/12/11 06:32:56;;;;;;;;;3.00;3.00;;;;;;;;5076684;28;45318;-42
2021/12/11 06:35:24;;;;;;;;;3.50;3.50;;;;;;;;5074661;27;45482;-41
2021/12/11 06:37:49;;;;;;;;;2.00;2.00;;;;;;;;5075199;28;46952;-42
2021/12/11 06:40:16;;;;;;;;;5.75;5.00;;;;;;;;5076536;27;45347;-41
2021/12/11 06:42:41;;;;;;;;;5.25;3.00;;;;;;;;5076605;28;45386;-41
2021/12/11 06:45:07;;;;;;;;;3.75;1.75;;;;;;;;5076254;28;45522;-43
2021/12/11 06:47:32;;;;;;;;;3.00;3.00;;;;;;;;5076073;27;45409;-42
2021/12/11 06:49:58;;;;;;;;;5.50;4.50;;;;;;;;5076817;27;45380;-42
2021/12/11 06:52:24;;;;;;;;;6.25;3.00;;;;;;;;5076195;28;45341;-43
2021/12/11 06:54:50;;;;;;;;;2.25;2.25;;;;;;;;5076886;27;45552;-42
2021/12/11 06:57:16;;;;;;;;;5.00;3.00;;;;;;;;5075079;27;46114;-43
2021/12/11 06:59:41;;;;;;;;;2.25;2.25;;;;;;;;5074185;28;45409;-42
2021/12/11 07:02:07;;;;;;;;;2.25;2.25;;;;;;;;5076515;27;45502;-43
2021/12/11 07:04:32;;;;;;;;;8.50;4.50;;;;;;;;5062121;28;45437;-42
2021/12/11 07:06:57;;;;;;;;;3.00;3.00;;;;;;;;5072424;28;46276;-43
2021/12/11 07:09:24;;;;;;;;;2.00;2.00;;;;;;;;5074829;27;45940;-42
2021/12/11 07:11:51;;;;;;;;;3.00;2.00;;;;;;;;5075943;27;45347;-42
2021/12/11 07:14:17;;;;;;;;;2.00;2.00;;;;;;;;5074901;27;45411;-42
2021/12/11 07:16:43;;;;;;;;;5.00;2.75;;;;;;;;5067685;27;45377;-41
2021/12/11 07:19:08;;;;;;;;;4.50;4.50;;;;;;;;5075839;28;45393;-42
2021/12/11 07:21:34;;;;;;;;;2.50;2.50;;;;;;;;5071022;28;45389;-42
2021/12/11 07:23:59;;;;;;;;;7.25;5.50;;;;;;;;5076111;28;45476;-42
2021/12/11 07:26:32;;;;;;;;;4.00;2.50;;;;;;;;5074588;28;46807;-42
2021/12/11 07:29:01;;;;;;;;;3.50;2.50;;;;;;;;5075510;28;45376;-41
2021/12/11 07:31:27;;;;;;;;;6.25;5.00;;;;;;;;5074736;27;45536;-41
2021/12/11 07:33:52;;;;;;;;;2.00;2.00;;;;;;;;5061955;27;45489;-42
2021/12/11 07:36:18;;;;;;;;;2.50;2.50;;;;;;;;5057387;28;46380;-42
2021/12/11 07:38:44;;;;;;;;;3.50;3.00;;;;;;;;5059316;28;45378;-42
2021/12/11 07:41:10;;;;;;;;;5.00;5.00;;;;;;;;5068045;28;45423;-42
2021/12/11 07:43:36;;;;;;;;;3.00;3.00;;;;;;;;5079591;28;45408;-42
2021/12/11 07:46:03;;;;;;;;;6.25;4.50;;;;;;;;5078738;28;45539;-42
2021/12/11 07:48:28;;;;;;;;;7.00;5.00;;;;;;;;5078804;27;45380;-42
2021/12/11 07:50:53;;;;;;;;;2.75;2.75;;;;;;;;5079430;27;45759;-42
2021/12/11 07:53:19;;;;;;;;;6.00;3.00;;;;;;;;5078324;28;45381;-43
2021/12/11 07:55:44;;;;;;;;;4.50;2.25;;;;;;;;5077225;28;45533;-43
2021/12/11 07:58:10;;;;;;;;;3.50;2.00;;;;;;;;5078131;28;45384;-42
2021/12/11 08:00:36;;;;;;;;;4.50;4.50;;;;;;;;5078595;27;45194;-42
2021/12/11 08:03:02;;;;;;;;;5.00;5.00;;;;;;;;5076037;27;45502;-44
2021/12/11 08:05:27;;;;;;;;;9.00;4.00;;;;;;;;5077514;28;45326;-44
2021/12/11 08:07:53;;;;;;;;;6.00;4.50;;;;;;;;5079013;28;45421;-43
2021/12/11 08:10:19;;;;;;;;;4.50;4.50;;;;;;;;5078429;27;45416;-48
2021/12/11 08:12:45;;;;;;;;;6.00;6.00;;;;;;;;5079361;27;45439;-46
2021/12/11 08:15:11;;;;;;;;;5.00;5.00;;;;;;;;5077256;27;46083;-46
2021/12/11 08:17:37;;;;;;;;;6.75;3.00;;;;;;;;5076832;27;45436;-45
2021/12/11 08:20:04;;;;;;;;;4.25;2.50;;;;;;;;5091357;27;45384;-47
2021/12/11 08:22:29;;;;;;;;;8.75;6.00;;;;;;;;5078911;28;45587;-44
2021/12/11 08:24:54;;;;;;;;;5.00;5.00;;;;;;;;5077988;27;45425;-44
2021/12/11 08:27:21;;;;;;;;;5.75;5.25;;;;;;;;5074026;28;45483;-43
2021/12/11 08:29:47;;;;;;;;;2.00;2.00;;;;;;;;5076496;28;45543;-45
2021/12/11 08:32:13;;;;;;;;;3.50;2.25;;;;;;;;5064652;27;45640;-57
2021/12/11 08:34:38;;;;;;;;;5.00;3.00;;;;;;;;5077418;27;45351;-45
2021/12/11 08:37:05;;;;;;;;;4.50;3.00;;;;;;;;5076160;27;45457;-43
2021/12/11 08:39:30;;;;;;;;;7.00;3.50;;;;;;;;5078242;27;45438;-44
2021/12/11 08:41:57;;;;;;;;;5.75;5.00;;;;;;;;5078120;28;45448;-44
2021/12/11 08:44:23;;;;;;;;;5.00;5.00;;;;;;;;5067786;27;45592;-43
2021/12/11 08:46:55;;;;;;;;;5.00;3.00;;;;;;;;5072281;28;45303;-44
2021/12/11 08:49:23;;;;;;;;;4.00;4.00;;;;;;;;5076602;28;45336;-44
2021/12/11 08:51:53;;;;;;;;;5.50;5.50;;;;;;;;5077946;27;45503;-42
2021/12/11 08:54:20;;;;;;;;;7.50;6.00;;;;;;;;5077263;27;46059;-46
2021/12/11 08:56:46;;;;;;;;;6.75;5.50;;;;;;;;5077322;28;45464;-44
2021/12/11 08:59:13;;;;;;;;;6.25;6.25;;;;;;;;5075461;28;45499;-44
2021/12/11 09:01:44;;;;;;;;;6.00;6.00;;;;;;;;5077669;28;45414;-47
2021/12/11 09:04:12;;;;;;;;;5.00;5.00;;;;;;;;5075823;27;45586;-45
2021/12/11 09:07:04;;;;;;;;;4.00;3.00;;;;;;;;5076256;27;45430;-45
2021/12/11 09:09:39;;;;;;;;;7.75;6.00;;;;;;;;5071522;28;45264;-46
2021/12/11 09:12:11;;;;;;;;;5.50;3.50;;;;;;;;5057403;28;45424;-44
2021/12/11 09:14:39;;;;;;;;;6.75;5.00;;;;;;;;5071935;28;46217;-44
2021/12/11 09:17:07;;;;;;;;;7.00;6.25;;;;;;;;5077325;27;45418;-44
2021/12/11 09:19:36;;;;;;;;;5.00;5.00;;;;;;;;5072545;28;45401;-45
2021/12/11 09:22:13;;;;;;;;;6.75;5.25;;;;;;;;5068761;28;45540;-45
2021/12/11 09:24:49;;;;;;;;;5.75;5.75;;;;;;;;5060483;28;47163;-45
2021/12/11 09:27:20;;;;;;;;;7.00;7.00;;;;;;;;5059743;28;45502;-44
2021/12/11 09:29:51;;;;;;;;;6.75;6.00;;;;;;;;5074489;27;45315;-44
2021/12/11 09:32:19;;;;;;;;;5.25;5.00;;;;;;;;5076584;28;45556;-44
2021/12/11 09:35:04;;;;;;;;;6.50;6.25;;;;;;;;5077101;27;45334;-45
2021/12/11 09:37:31;;;;;;;;;5.50;5.00;;;;;;;;5075315;28;45680;-42
2021/12/11 09:39:58;;;;;;;;;8.50;8.25;;;;;;;;5077061;28;45331;-44
2021/12/11 09:42:23;;;;;;;;;6.25;5.75;;;;;;;;5076594;28;45350;-43
2021/12/11 09:45:24;;;;;;;;;4.00;3.80;;;;;;;;5077179;28;45436;-42
2021/12/11 09:47:52;;;;;;;;;11.00;6.25;;;;;;;;5034299;28;45527;-43
2021/12/11 09:50:22;;;;;;;;;6.75;5.50;;;;;;;;5047708;28;45516;-43
2021/12/11 09:52:49;;;;;;;;;9.25;9.25;;;;;;;;5056665;28;45390;-44
2021/12/11 09:55:17;;;;;;;;;6.50;6.50;;;;;;;;5058409;28;45361;-46
2021/12/11 09:57:46;;;;;;;;;7.75;7.75;;;;;;;;5075771;27;45347;-46
2021/12/11 10:00:29;;;;;;;;;8.75;6.50;;;;;;;;5075568;27;45458;-45
2021/12/11 10:02:54;;;;;;;;;6.75;5.00;;;;;;;;5077278;28;45574;-44
2021/12/11 10:05:35;;;;;;;;;8.00;6.75;;;;;;;;5075962;28;46272;-43
2021/12/11 10:11:01;;;;;;;;;10.00;6.00;;;;;;;;5079563;27;45379;-42
2021/12/11 10:13:28;;;;;;;;;10.25;7.75;;;;;;;;5075585;28;45586;-44
2021/12/11 10:15:53;;;;;;;;;8.50;5.50;;;;;;;;5073522;28;47316;-44
2021/12/11 10:18:20;;;;;;;;;8.50;6.00;;;;;;;;5076508;27;45468;-46
2021/12/11 10:20:51;;;;;;;;;7.50;6.00;;;;;;;;5076629;28;45366;-44
2021/12/11 10:23:18;;;;;;;;;6.75;5.75;;;;;;;;5073325;28;45522;-44
2021/12/11 10:25:44;;;;;;;;;5.25;3.00;;;;;;;;5073725;28;45515;-44
2021/12/11 10:28:11;;;;;;;;;6.00;4.75;;;;;;;;5075822;28;45393;-43
2021/12/11 10:30:44;;;;;;;;;8.75;6.75;;;;;;;;5075287;28;45434;-43
2021/12/11 10:33:09;;;;;;;;;7.75;7.75;;;;;;;;5065177;27;45520;-44
2021/12/11 10:35:37;;;;;;;;;3.00;3.00;;;;;;;;5076548;27;45305;-45
2021/12/11 10:38:05;;;;;;;;;5.00;5.00;;;;;;;;5075765;27;45430;-46
2021/12/11 10:40:32;;;;;;;;;6.75;5.50;;;;;;;;5074943;27;45554;-44
2021/12/11 10:43:00;;;;;;;;;5.00;3.25;;;;;;;;5069900;28;45475;-45
2021/12/11 10:45:26;;;;;;;;;5.75;4.75;;;;;;;;5067440;28;45925;-47
2021/12/11 10:47:53;;;;;;;;;6.25;5.25;;;;;;;;5075833;27;45433;-44
2021/12/11 10:50:22;;;;;;;;;5.75;5.75;;;;;;;;5075877;28;45515;-46
2021/12/11 10:52:48;;;;;;;;;7.00;6.25;;;;;;;;5075849;27;45419;-45
2021/12/11 10:55:17;;;;;;;;;6.00;3.25;;;;;;;;5074981;27;45606;-46
2021/12/11 10:57:42;;;;;;;;;7.00;5.00;;;;;;;;5074648;28;45472;-45
2021/12/11 11:00:11;;;;;;;;;5.00;5.00;;;;;;;;5073972;27;45497;-44
2021/12/11 11:02:36;;;;;;;;;7.75;6.50;;;;;;;;5074655;28;45515;-44
2021/12/11 11:05:10;;;;;;;;;8.75;6.25;;;;;;;;5074411;27;46344;-45
2021/12/11 11:07:36;;;;;;;;;8.75;8.75;;;;;;;;5091098;27;45314;-45
2021/12/11 11:10:04;;;;;;;;;9.25;9.00;;;;;;;;5074267;27;45564;-45
2021/12/11 11:12:29;;;;;;;;;7.25;7.25;;;;;;;;5075888;27;45407;-47
2021/12/11 11:14:56;;;;;;;;;7.25;7.25;;;;;;;;5075543;27;45366;-47
2021/12/11 11:17:27;;;;;;;;;8.75;8.00;;;;;;;;5074536;28;45361;-45
2021/12/11 11:19:53;;;;;;;;;8.00;5.50;;;;;;;;5075686;27;45370;-46
2021/12/11 11:22:23;;;;;;;;;12.75;11.50;;;;;;;;5074455;27;45475;-44
2021/12/11 11:24:55;;;;;;;;;5.50;5.50;;;;;;;;5075826;28;45572;-45
2021/12/11 11:27:20;;;;;;;;;9.00;7.00;;;;;;;;5070361;28;45387;-48
2021/12/11 11:29:46;;;;;;;;;7.25;6.00;;;;;;;;5064321;28;45445;-47
2021/12/11 11:32:13;;;;;;;;;6.25;6.00;;;;;;;;5067472;28;45521;-44
2021/12/11 11:34:41;;;;;;;;;6.00;6.00;;;;;;;;5073968;27;45588;-45
2021/12/11 11:37:09;;;;;;;;;5.25;5.25;;;;;;;;5074162;27;45378;-46
2021/12/11 11:39:34;;;;;;;;;11.00;8.50;;;;;;;;5076163;27;45334;-43
2021/12/11 11:42:03;;;;;;;;;6.00;6.00;;;;;;;;5076092;27;45284;-44
2021/12/11 11:44:29;;;;;;;;;10.75;7.75;;;;;;;;5073933;28;45531;-43
2021/12/11 11:46:56;;;;;;;;;6.50;6.25;;;;;;;;5075244;27;45534;-43
2021/12/11 11:49:21;;;;;;;;;11.00;11.00;;;;;;;;5075299;28;45508;-44
2021/12/11 11:51:47;;;;;;;;;5.50;5.00;;;;;;;;5074917;27;45562;-43
2021/12/11 11:54:13;;;;;;;;;7.50;7.50;;;;;;;;5073912;27;45440;-44
2021/12/11 11:56:41;;;;;;;;;6.75;6.50;;;;;;;;5075134;27;45459;-43
2021/12/11 11:59:07;;;;;;;;;5.25;5.25;;;;;;;;5075893;27;45211;-47
2021/12/11 12:01:38;;;;;;;;;4.50;4.50;;;;;;;;5073127;28;45666;-46
2021/12/11 12:04:04;;;;;;;;;13.25;12.25;;;;;;;;5074812;27;45437;-44
2021/12/11 12:06:33;;;;;;;;;7.50;5.50;;;;;;;;5070442;27;45372;-45
2021/12/11 12:09:00;;;;;;;;;7.50;6.50;;;;;;;;5075355;28;45461;-44
2021/12/11 12:11:27;;;;;;;;;7.25;7.25;;;;;;;;5075394;27;45550;-44
2021/12/11 12:13:53;;;;;;;;;9.25;5.00;;;;;;;;5075290;27;46020;-44
2021/12/11 12:16:18;;;;;;;;;7.75;6.00;;;;;;;;5072571;27;45428;-46
2021/12/11 12:18:44;;;;;;;;;6.00;6.00;;;;;;;;5074930;27;45391;-46
2021/12/11 12:21:11;;;;;;;;;13.00;11.50;;;;;;;;5072705;28;45468;-44
2021/12/11 12:23:37;;;;;;;;;11.00;6.75;;;;;;;;5075974;28;46465;-43
2021/12/11 12:26:08;;;;;;;;;7.50;7.50;;;;;;;;5078077;27;45481;-43
2021/12/11 12:28:34;;;;;;;;;6.00;5.50;;;;;;;;5077403;28;45329;-44
2021/12/11 12:31:02;;;;;;;;;7.00;6.25;;;;;;;;5066722;27;45584;-45
2021/12/11 12:33:28;;;;;;;;;6.00;6.00;;;;;;;;5076886;28;46790;-44
2021/12/11 12:35:54;;;;;;;;;9.50;8.00;;;;;;;;5077850;27;45318;-44
2021/12/11 12:38:20;;;;;;;;;9.00;6.00;;;;;;;;5077740;27;45475;-44
2021/12/11 12:40:50;;;;;;;;;6.00;6.00;;;;;;;;5076431;27;45471;-43
2021/12/11 12:43:42;;;;;;;;;6.25;5.00;;;;;;;;5077179;28;46601;-45
2021/12/11 12:46:04;;;;;;;;;26.75;25.00;;;;;;;;5076815;27;45611;-44
2021/12/11 12:48:29;;;;;;;;;14.50;13.50;;;;;;;;5077851;27;45402;-45
2021/12/11 12:51:00;;;;;;;;;11.25;7.50;;;;;;;;5077186;28;45353;-44
2021/12/11 12:53:26;;;;;;;;;8.25;8.25;;;;;;;;5075079;27;45397;-45
2021/12/11 12:55:54;;;;;;;;;6.75;6.50;;;;;;;;5061561;27;45370;-44
2021/12/11 12:58:22;;;;;;;;;10.50;7.00;;;;;;;;5074550;28;45474;-45
2021/12/11 13:00:52;;;;;;;;;5.50;5.50;;;;;;;;5076444;27;45453;-47
2021/12/11 13:03:19;;;;;;;;;8.00;4.00;;;;;;;;5077061;27;46700;-44
2021/12/11 13:05:50;;;;;;;;;8.25;6.25;;;;;;;;5067926;27;45465;-46
2021/12/11 13:08:20;;;;;;;;;3.00;3.00;;;;;;;;5077779;28;45491;-49
2021/12/11 13:10:54;;;;;;;;;6.00;6.00;;;;;;;;5076411;27;45404;-45
2021/12/11 13:13:20;;;;;;;;;7.00;4.00;;;;;;;;5076349;27;46566;-46
2021/12/11 13:15:48;;;;;;;;;9.25;9.00;;;;;;;;5076747;28;45564;-45
2021/12/11 13:18:19;;;;;;;;;10.00;7.50;;;;;;;;5077622;28;45586;-44
2021/12/11 13:20:50;;;;;;;;;20.50;17.75;;;;;;;;5076555;27;45481;-46
2021/12/11 13:23:15;;;;;;;;;9.25;4.50;;;;;;;;5076380;27;45438;-50
2021/12/11 13:25:53;;;;;;;;;8.75;6.25;;;;;;;;5074539;27;45367;-45
2021/12/11 13:28:21;;;;;;;;;9.25;6.00;;;;;;;;5068274;28;45539;-44
2021/12/11 13:30:52;;;;;;;;;4.50;4.50;;;;;;;;5074516;28;45536;-45
2021/12/11 13:33:18;;;;;;;;;6.25;6.25;;;;;;;;5075755;27;46805;-46
2021/12/11 13:35:43;;;;;;;;;9.00;7.00;;;;;;;;5074606;27;45535;-47
2021/12/11 13:38:10;;;;;;;;;7.50;7.50;;;;;;;;5077664;27;45424;-45
2021/12/11 13:40:37;;;;;;;;;8.00;7.00;;;;;;;;5077941;27;45606;-49
2021/12/11 13:43:03;;;;;;;;;7.25;7.00;;;;;;;;5077971;27;46070;-47
2021/12/11 13:45:32;;;;;;;;;12.00;10.25;;;;;;;;5076674;27;45377;-45
2021/12/11 13:47:57;;;;;;;;;15.00;10.00;;;;;;;;5076969;27;45507;-46
2021/12/11 13:50:26;;;;;;;;;13.75;13.00;;;;;;;;5075871;27;45678;-47
2021/12/11 13:52:51;;;;;;;;;8.00;7.25;;;;;;;;5076399;27;45529;-52
2021/12/11 13:55:17;;;;;;;;;12.25;10.50;;;;;;;;5074748;27;45458;-48
2021/12/11 13:57:43;;;;;;;;;11.50;10.00;;;;;;;;5076256;27;45489;-47
2021/12/11 14:00:11;;;;;;;;;11.25;8.00;;;;;;;;5070038;27;45443;-51
2021/12/11 14:02:37;;;;;;;;;7.50;7.25;;;;;;;;5075399;28;46433;-49
2021/12/11 14:05:02;;;;;;;;;6.00;6.00;;;;;;;;5076301;27;45277;-46
2021/12/11 14:07:30;;;;;;;;;72.75;56.50;;;;;;;;5075470;27;45308;-47
2021/12/11 14:10:02;;;;;;;;;43.75;39.25;;;;;;;;5074858;28;45576;-46
2021/12/11 14:12:29;;;;;;;;;13.00;13.00;;;;;;;;5070362;27;46718;-47
2021/12/11 14:14:55;;;;;;;;;10.50;8.00;;;;;;;;5074565;28;45506;-45
2021/12/11 14:17:21;;;;;;;;;9.00;8.75;;;;;;;;5076067;28;45399;-47
2021/12/11 14:19:47;;;;;;;;;7.25;7.25;;;;;;;;5076480;28;45422;-46
2021/12/11 14:22:13;;;;;;;;;7.75;7.75;;;;;;;;5076713;28;45508;-47
2021/12/11 14:24:42;;;;;;;;;20.75;16.50;;;;;;;;5076735;28;45325;-46
2021/12/11 14:27:13;;;;;;;;;12.75;11.00;;;;;;;;5076401;28;45464;-46
2021/12/11 14:29:39;;;;;;;;;12.00;8.25;;;;;;;;5076232;28;45539;-48
2021/12/11 14:32:04;;;;;;;;;6.00;6.00;;;;;;;;5076732;27;46554;-47
2021/12/11 14:34:30;;;;;;;;;9.25;9.25;;;;;;;;5075647;27;45417;-46
2021/12/11 14:36:58;;;;;;;;;11.75;8.00;;;;;;;;5076252;28;45424;-47
2021/12/11 14:39:25;;;;;;;;;8.75;8.75;;;;;;;;5076640;27;45408;-46
2021/12/11 14:41:51;;;;;;;;;10.00;7.50;;;;;;;;5074711;27;46951;-47
2021/12/11 14:44:20;;;;;;;;;7.00;7.00;;;;;;;;5076606;28;45456;-48
2021/12/11 14:46:46;;;;;;;;;8.25;7.75;;;;;;;;5076152;28;45235;-47
2021/12/11 14:49:12;;;;;;;;;10.00;10.00;;;;;;;;5076383;27;45493;-47
2021/12/11 14:51:38;;;;;;;;;7.75;7.00;;;;;;;;5075820;27;46106;-45
2021/12/11 14:54:04;;;;;;;;;7.00;6.00;;;;;;;;5074955;27;45511;-46
2021/12/11 14:56:34;;;;;;;;;8.25;8.25;;;;;;;;5072644;27;45519;-46
2021/12/11 14:59:04;;;;;;;;;7.75;7.75;;;;;;;;5074891;27;45501;-47
2021/12/11 15:01:50;;;;;;;;;7.00;7.00;;;;;;;;5072545;27;45523;-55